TimeCDT,TemperatureF,Dew PointF,Humidity,Sea Level PressureIn,VisibilityMPH,Wind Direction,Wind SpeedMPH,Gust SpeedMPH,PrecipitationIn,Events,Conditions,WindDirDegrees,DateUTC
12:35 AM,48.2,46.4,93,29.87,9.0,West,13.8,20.7,N/A,,Partly Cloudy,270,2012-10-15 05:35:00
12:53 AM,48.9,46.0,90,29.87,10.0,West,12.7,-,N/A,,Partly Cloudy,280,2012-10-15 05:53:00
1:53 AM,46.9,44.1,90,29.88,10.0,WNW,10.4,-,N/A,,Partly Cloudy,290,2012-10-15 06:53:00
2:53 AM,45.0,42.1,90,29.89,10.0,West,9.2,-,N/A,,Clear,280,2012-10-15 07:53:00
3:53 AM,42.1,39.9,92,29.88,10.0,West,8.1,-,N/A,,Clear,260,2012-10-15 08:53:00
4:53 AM,42.1,39.9,92,29.89,9.0,West,8.1,-,N/A,,Clear,260,2012-10-15 09:53:00
5:53 AM,41.0,39.9,96,29.90,8.0,West,8.1,-,N/A,,Clear,260,2012-10-15 10:53:00
6:53 AM,41.0,39.0,93,29.92,8.0,West,3.5,-,N/A,,Clear,280,2012-10-15 11:53:00
7:53 AM,44.1,42.1,93,29.94,6.0,WNW,6.9,-,N/A,,Clear,290,2012-10-15 12:53:00
8:53 AM,48.9,44.1,83,29.96,10.0,WNW,9.2,-,N/A,,Clear,300,2012-10-15 13:53:00
9:53 AM,53.1,39.9,61,29.98,10.0,NW,13.8,-,N/A,,Clear,310,2012-10-15 14:53:00
10:53 AM,55.9,39.9,55,29.99,10.0,NW,16.1,-,N/A,,Clear,320,2012-10-15 15:53:00
11:53 AM,59.0,37.9,46,29.99,10.0,WNW,13.8,-,N/A,,Clear,300,2012-10-15 16:53:00
12:53 PM,60.1,37.9,44,29.99,10.0,WNW,12.7,23.0,N/A,,Clear,300,2012-10-15 17:53:00
1:53 PM,61.0,37.9,42,29.97,10.0,WNW,11.5,20.7,N/A,,Clear,300,2012-10-15 18:53:00
2:53 PM,62.1,39.0,43,29.97,10.0,NW,16.1,-,N/A,,Clear,310,2012-10-15 19:53:00
3:53 PM,62.1,39.0,43,29.98,10.0,NW,12.7,-,N/A,,Clear,310,2012-10-15 20:53:00
4:53 PM,60.1,41.0,49,29.98,10.0,WNW,8.1,-,N/A,,Clear,300,2012-10-15 21:53:00
5:53 PM,57.0,42.1,57,29.98,10.0,WNW,5.8,-,N/A,,Clear,300,2012-10-15 22:53:00
6:53 PM,54.0,39.9,59,29.97,10.0,Calm,Calm,-,N/A,,Clear,0,2012-10-15 23:53:00
7:53 PM,50.0,41.0,71,29.98,10.0,Calm,Calm,-,N/A,,Clear,0,2012-10-16 00:53:00
8:53 PM,48.9,39.9,71,29.98,10.0,Calm,Calm,-,N/A,,Clear,0,2012-10-16 01:53:00
9:53 PM,45.0,39.9,82,29.99,10.0,SE,4.6,-,N/A,,Clear,140,2012-10-16 02:53:00
10:53 PM,45.0,39.0,80,29.98,10.0,SE,5.8,-,N/A,,Clear,140,2012-10-16 03:53:00
11:53 PM,44.1,37.9,79,29.99,10.0,SSE,4.6,-,N/A,,Clear,150,2012-10-16 04:53:00